sensor_id;sensor_type;location;lat;lon;timestamp;P1;durP1;ratioP1;P2;durP2;ratioP2
48651;SDS011;34442;52.362;-1.302;2023-04-24T00:01:39;5.63;;;2.60;;
48651;SDS011;34442;52.362;-1.302;2023-04-24T00:04:05;5.13;;;2.78;;
48651;SDS011;34442;52.362;-1.302;2023-04-24T00:06:32;5.18;;;2.75;;
48651;SDS011;34442;52.362;-1.302;2023-04-24T00:09:01;6.80;;;3.40;;
48651;SDS011;34442;52.362;-1.302;2023-04-24T00:11:27;8.25;;;5.35;;
48651;SDS011;34442;52.362;-1.302;2023-04-24T00:13:53;7.53;;;3.97;;
48651;SDS011;34442;52.362;-1.302;2023-04-24T00:16:18;6.80;;;4.28;;
48651;SDS011;34442;52.362;-1.302;2023-04-24T00:18:44;5.88;;;3.72;;
48651;SDS011;34442;52.362;-1.302;2023-04-24T00:21:10;4.05;;;2.50;;
48651;SDS011;34442;52.362;-1.302;2023-04-24T00:23:36;6.07;;;3.47;;
48651;SDS011;34442;52.362;-1.302;2023-04-24T00:26:01;5.15;;;2.95;;
48651;SDS011;34442;52.362;-1.302;2023-04-24T00:28:27;5.63;;;3.20;;
48651;SDS011;34442;52.362;-1.302;2023-04-24T00:30:52;5.70;;;3.13;;
48651;SDS011;34442;52.362;-1.302;2023-04-24T00:33:18;3.83;;;2.42;;
48651;SDS011;34442;52.362;-1.302;2023-04-24T00:35:44;5.57;;;3.03;;
48651;SDS011;34442;52.362;-1.302;2023-04-24T00:38:10;5.30;;;2.75;;
48651;SDS011;34442;52.362;-1.302;2023-04-24T00:40:35;5.65;;;2.95;;
48651;SDS011;34442;52.362;-1.302;2023-04-24T00:43:00;4.97;;;2.15;;
48651;SDS011;34442;52.362;-1.302;2023-04-24T00:45:26;6.82;;;2.95;;
48651;SDS011;34442;52.362;-1.302;2023-04-24T00:47:52;4.32;;;2.35;;
48651;SDS011;34442;52.362;-1.302;2023-04-24T00:50:18;4.40;;;2.33;;
48651;SDS011;34442;52.362;-1.302;2023-04-24T00:52:46;4.82;;;2.00;;
48651;SDS011;34442;52.362;-1.302;2023-04-24T00:55:12;3.95;;;2.25;;
48651;SDS011;34442;52.362;-1.302;2023-04-24T00:57:37;3.85;;;1.98;;
48651;SDS011;34442;52.362;-1.302;2023-04-24T01:00:04;3.85;;;1.85;;
48651;SDS011;34442;52.362;-1.302;2023-04-24T01:02:32;3.92;;;1.85;;
48651;SDS011;34442;52.362;-1.302;2023-04-24T01:05:00;4.35;;;2.10;;
48651;SDS011;34442;52.362;-1.302;2023-04-24T01:07:26;3.88;;;1.83;;
48651;SDS011;34442;52.362;-1.302;2023-04-24T01:09:52;5.03;;;2.42;;
48651;SDS011;34442;52.362;-1.302;2023-04-24T01:12:18;3.97;;;2.17;;
48651;SDS011;34442;52.362;-1.302;2023-04-24T01:14:44;4.82;;;2.20;;
48651;SDS011;34442;52.362;-1.302;2023-04-24T01:17:10;3.83;;;2.15;;
48651;SDS011;34442;52.362;-1.302;2023-04-24T01:19:36;4.28;;;1.92;;
48651;SDS011;34442;52.362;-1.302;2023-04-24T01:22:02;3.95;;;2.05;;
48651;SDS011;34442;52.362;-1.302;2023-04-24T01:24:28;3.83;;;1.90;;
48651;SDS011;34442;52.362;-1.302;2023-04-24T01:26:54;3.25;;;1.85;;
48651;SDS011;34442;52.362;-1.302;2023-04-24T01:29:20;3.25;;;1.70;;
48651;SDS011;34442;52.362;-1.302;2023-04-24T01:31:46;4.35;;;2.13;;
48651;SDS011;34442;52.362;-1.302;2023-04-24T01:34:12;3.50;;;1.52;;
48651;SDS011;34442;52.362;-1.302;2023-04-24T01:36:37;6.85;;;2.75;;
48651;SDS011;34442;52.362;-1.302;2023-04-24T01:39:04;3.50;;;1.90;;
48651;SDS011;34442;52.362;-1.302;2023-04-24T01:41:30;4.18;;;2.10;;
48651;SDS011;34442;52.362;-1.302;2023-04-24T01:43:56;3.47;;;1.88;;
48651;SDS011;34442;52.362;-1.302;2023-04-24T01:46:23;3.60;;;1.60;;
48651;SDS011;34442;52.362;-1.302;2023-04-24T01:48:49;2.88;;;1.30;;
48651;SDS011;34442;52.362;-1.302;2023-04-24T01:51:14;5.18;;;2.75;;
48651;SDS011;34442;52.362;-1.302;2023-04-24T01:53:39;4.47;;;1.80;;
48651;SDS011;34442;52.362;-1.302;2023-04-24T01:56:05;4.65;;;1.70;;
48651;SDS011;34442;52.362;-1.302;2023-04-24T01:58:30;3.25;;;1.80;;
48651;SDS011;34442;52.362;-1.302;2023-04-24T02:00:56;3.60;;;1.70;;
48651;SDS011;34442;52.362;-1.302;2023-04-24T02:03:24;3.40;;;1.92;;
48651;SDS011;34442;52.362;-1.302;2023-04-24T02:05:50;2.88;;;1.70;;
48651;SDS011;34442;52.362;-1.302;2023-04-24T02:08:16;3.08;;;1.50;;
48651;SDS011;34442;52.362;-1.302;2023-04-24T02:10:41;4.43;;;1.52;;
48651;SDS011;34442;52.362;-1.302;2023-04-24T02:13:06;3.13;;;1.75;;
48651;SDS011;34442;52.362;-1.302;2023-04-24T02:15:32;3.20;;;1.50;;
48651;SDS011;34442;52.362;-1.302;2023-04-24T02:17:57;2.47;;;1.30;;
48651;SDS011;34442;52.362;-1.302;2023-04-24T02:20:23;3.33;;;1.55;;
48651;SDS011;34442;52.362;-1.302;2023-04-24T02:22:48;2.25;;;1.23;;
48651;SDS011;34442;52.362;-1.302;2023-04-24T02:25:14;2.45;;;1.23;;
48651;SDS011;34442;52.362;-1.302;2023-04-24T02:27:39;1.67;;;1.13;;
48651;SDS011;34442;52.362;-1.302;2023-04-24T02:30:04;1.45;;;0.98;;
48651;SDS011;34442;52.362;-1.302;2023-04-24T02:32:31;2.97;;;1.45;;
48651;SDS011;34442;52.362;-1.302;2023-04-24T02:34:56;1.33;;;1.00;;
48651;SDS011;34442;52.362;-1.302;2023-04-24T02:37:21;1.50;;;1.08;;
48651;SDS011;34442;52.362;-1.302;2023-04-24T02:39:47;1.50;;;0.90;;
48651;SDS011;34442;52.362;-1.302;2023-04-24T02:42:12;1.30;;;0.88;;
48651;SDS011;34442;52.362;-1.302;2023-04-24T02:44:37;1.48;;;1.00;;
48651;SDS011;34442;52.362;-1.302;2023-04-24T02:47:03;1.70;;;1.10;;
48651;SDS011;34442;52.362;-1.302;2023-04-24T02:49:28;1.75;;;1.08;;
48651;SDS011;34442;52.362;-1.302;2023-04-24T02:51:54;2.70;;;1.10;;
48651;SDS011;34442;52.362;-1.302;2023-04-24T02:54:19;5.85;;;1.48;;
48651;SDS011;34442;52.362;-1.302;2023-04-24T02:56:44;1.38;;;0.90;;
48651;SDS011;34442;52.362;-1.302;2023-04-24T02:59:10;1.30;;;0.93;;
48651;SDS011;34442;52.362;-1.302;2023-04-24T03:01:35;2.60;;;1.50;;
48651;SDS011;34442;52.362;-1.302;2023-04-24T03:04:01;3.70;;;1.40;;
48651;SDS011;34442;52.362;-1.302;2023-04-24T03:06:26;4.35;;;1.55;;
48651;SDS011;34442;52.362;-1.302;2023-04-24T03:08:52;1.67;;;0.90;;
48651;SDS011;34442;52.362;-1.302;2023-04-24T03:11:17;1.75;;;1.08;;
48651;SDS011;34442;52.362;-1.302;2023-04-24T03:13:43;2.90;;;1.10;;
48651;SDS011;34442;52.362;-1.302;2023-04-24T03:16:08;1.42;;;1.00;;
48651;SDS011;34442;52.362;-1.302;2023-04-24T03:18:33;2.15;;;1.20;;
48651;SDS011;34442;52.362;-1.302;2023-04-24T03:20:59;3.55;;;1.27;;
48651;SDS011;34442;52.362;-1.302;2023-04-24T03:23:25;1.38;;;1.00;;
48651;SDS011;34442;52.362;-1.302;2023-04-24T03:25:51;1.80;;;0.90;;
48651;SDS011;34442;52.362;-1.302;2023-04-24T03:28:16;1.27;;;0.90;;
48651;SDS011;34442;52.362;-1.302;2023-04-24T03:30:41;4.22;;;1.20;;
48651;SDS011;34442;52.362;-1.302;2023-04-24T03:33:07;2.42;;;1.10;;
48651;SDS011;34442;52.362;-1.302;2023-04-24T03:35:33;1.55;;;0.88;;
48651;SDS011;34442;52.362;-1.302;2023-04-24T03:37:58;1.88;;;0.93;;
48651;SDS011;34442;52.362;-1.302;2023-04-24T03:40:24;2.88;;;1.30;;
48651;SDS011;34442;52.362;-1.302;2023-04-24T03:42:49;1.92;;;0.98;;
48651;SDS011;34442;52.362;-1.302;2023-04-24T03:45:14;2.42;;;1.08;;
48651;SDS011;34442;52.362;-1.302;2023-04-24T03:47:40;1.60;;;0.90;;
48651;SDS011;34442;52.362;-1.302;2023-04-24T03:50:06;1.77;;;1.02;;
48651;SDS011;34442;52.362;-1.302;2023-04-24T03:52:31;1.90;;;1.00;;
48651;SDS011;34442;52.362;-1.302;2023-04-24T03:54:57;1.70;;;0.88;;
48651;SDS011;34442;52.362;-1.302;2023-04-24T03:57:22;2.78;;;1.00;;
48651;SDS011;34442;52.362;-1.302;2023-04-24T03:59:47;2.47;;;1.00;;
48651;SDS011;34442;52.362;-1.302;2023-04-24T04:02:13;2.88;;;1.38;;
48651;SDS011;34442;52.362;-1.302;2023-04-24T04:04:38;1.95;;;1.20;;
48651;SDS011;34442;52.362;-1.302;2023-04-24T04:07:03;2.33;;;1.30;;
48651;SDS011;34442;52.362;-1.302;2023-04-24T04:09:30;3.78;;;1.65;;
48651;SDS011;34442;52.362;-1.302;2023-04-24T04:11:56;3.10;;;1.60;;
48651;SDS011;34442;52.362;-1.302;2023-04-24T04:14:21;3.03;;;1.70;;
48651;SDS011;34442;52.362;-1.302;2023-04-24T04:16:48;3.60;;;1.33;;
48651;SDS011;34442;52.362;-1.302;2023-04-24T04:19:14;2.45;;;1.38;;
48651;SDS011;34442;52.362;-1.302;2023-04-24T04:21:39;1.95;;;1.10;;
48651;SDS011;34442;52.362;-1.302;2023-04-24T04:24:04;1.85;;;1.10;;
48651;SDS011;34442;52.362;-1.302;2023-04-24T04:26:30;1.23;;;0.80;;
48651;SDS011;34442;52.362;-1.302;2023-04-24T04:28:58;1.35;;;0.95;;
48651;SDS011;34442;52.362;-1.302;2023-04-24T04:31:23;1.27;;;0.85;;
48651;SDS011;34442;52.362;-1.302;2023-04-24T04:33:49;2.10;;;1.00;;
48651;SDS011;34442;52.362;-1.302;2023-04-24T04:36:15;4.18;;;1.20;;
48651;SDS011;34442;52.362;-1.302;2023-04-24T04:38:42;2.58;;;1.30;;
48651;SDS011;34442;52.362;-1.302;2023-04-24T04:41:07;2.45;;;1.40;;
48651;SDS011;34442;52.362;-1.302;2023-04-24T04:43:33;2.08;;;1.10;;
48651;SDS011;34442;52.362;-1.302;2023-04-24T04:45:59;2.45;;;1.25;;
48651;SDS011;34442;52.362;-1.302;2023-04-24T04:48:26;3.45;;;1.48;;
48651;SDS011;34442;52.362;-1.302;2023-04-24T04:50:52;1.00;;;0.90;;
48651;SDS011;34442;52.362;-1.302;2023-04-24T04:53:17;1.73;;;1.02;;
48651;SDS011;34442;52.362;-1.302;2023-04-24T04:55:43;1.45;;;1.02;;
48651;SDS011;34442;52.362;-1.302;2023-04-24T04:58:08;2.83;;;1.15;;
48651;SDS011;34442;52.362;-1.302;2023-04-24T05:00:34;1.80;;;1.15;;
48651;SDS011;34442;52.362;-1.302;2023-04-24T05:03:02;2.65;;;1.27;;
48651;SDS011;34442;52.362;-1.302;2023-04-24T05:05:28;2.70;;;1.35;;
48651;SDS011;34442;52.362;-1.302;2023-04-24T05:07:53;1.55;;;0.98;;
48651;SDS011;34442;52.362;-1.302;2023-04-24T05:10:19;1.38;;;0.98;;
48651;SDS011;34442;52.362;-1.302;2023-04-24T05:12:44;1.80;;;1.00;;
48651;SDS011;34442;52.362;-1.302;2023-04-24T05:15:10;1.20;;;0.95;;
48651;SDS011;34442;52.362;-1.302;2023-04-24T05:17:36;2.13;;;1.23;;
48651;SDS011;34442;52.362;-1.302;2023-04-24T05:20:02;3.28;;;1.20;;
48651;SDS011;34442;52.362;-1.302;2023-04-24T05:22:30;1.58;;;1.25;;
48651;SDS011;34442;52.362;-1.302;2023-04-24T05:24:56;1.70;;;1.00;;
48651;SDS011;34442;52.362;-1.302;2023-04-24T05:27:22;0.98;;;0.85;;
48651;SDS011;34442;52.362;-1.302;2023-04-24T05:29:47;0.85;;;0.73;;
48651;SDS011;34442;52.362;-1.302;2023-04-24T05:32:13;3.42;;;1.00;;
48651;SDS011;34442;52.362;-1.302;2023-04-24T05:34:38;2.05;;;0.82;;
48651;SDS011;34442;52.362;-1.302;2023-04-24T05:37:04;1.23;;;1.00;;
48651;SDS011;34442;52.362;-1.302;2023-04-24T05:39:33;1.33;;;0.90;;
48651;SDS011;34442;52.362;-1.302;2023-04-24T05:41:59;2.13;;;1.10;;
48651;SDS011;34442;52.362;-1.302;2023-04-24T05:44:26;0.90;;;0.80;;
48651;SDS011;34442;52.362;-1.302;2023-04-24T05:46:51;1.27;;;0.90;;
48651;SDS011;34442;52.362;-1.302;2023-04-24T05:49:17;1.05;;;0.85;;
48651;SDS011;34442;52.362;-1.302;2023-04-24T05:51:42;1.63;;;1.00;;
48651;SDS011;34442;52.362;-1.302;2023-04-24T05:54:07;1.52;;;0.80;;
48651;SDS011;34442;52.362;-1.302;2023-04-24T05:56:33;1.50;;;0.93;;
48651;SDS011;34442;52.362;-1.302;2023-04-24T05:58:58;2.13;;;0.98;;
48651;SDS011;34442;52.362;-1.302;2023-04-24T06:01:24;0.85;;;0.80;;
48651;SDS011;34442;52.362;-1.302;2023-04-24T06:03:50;1.42;;;0.88;;
48651;SDS011;34442;52.362;-1.302;2023-04-24T06:06:15;1.48;;;1.00;;
48651;SDS011;34442;52.362;-1.302;2023-04-24T06:08:41;1.23;;;0.95;;
48651;SDS011;34442;52.362;-1.302;2023-04-24T06:11:09;0.93;;;0.80;;
48651;SDS011;34442;52.362;-1.302;2023-04-24T06:13:34;1.27;;;0.70;;
48651;SDS011;34442;52.362;-1.302;2023-04-24T06:16:00;1.00;;;0.73;;
48651;SDS011;34442;52.362;-1.302;2023-04-24T06:18:25;1.10;;;0.82;;
48651;SDS011;34442;52.362;-1.302;2023-04-24T06:20:51;2.38;;;1.08;;
48651;SDS011;34442;52.362;-1.302;2023-04-24T06:23:16;1.42;;;0.90;;
48651;SDS011;34442;52.362;-1.302;2023-04-24T06:25:42;0.77;;;0.70;;
48651;SDS011;34442;52.362;-1.302;2023-04-24T06:28:07;0.93;;;0.75;;
48651;SDS011;34442;52.362;-1.302;2023-04-24T06:30:33;0.60;;;0.60;;
48651;SDS011;34442;52.362;-1.302;2023-04-24T06:32:58;1.75;;;0.85;;
48651;SDS011;34442;52.362;-1.302;2023-04-24T06:35:24;1.63;;;0.77;;
48651;SDS011;34442;52.362;-1.302;2023-04-24T06:37:51;1.33;;;0.98;;
48651;SDS011;34442;52.362;-1.302;2023-04-24T06:40:16;0.60;;;0.60;;
48651;SDS011;34442;52.362;-1.302;2023-04-24T06:42:43;0.50;;;0.50;;
48651;SDS011;34442;52.362;-1.302;2023-04-24T06:45:09;2.28;;;0.80;;
48651;SDS011;34442;52.362;-1.302;2023-04-24T06:47:35;1.80;;;0.90;;
48651;SDS011;34442;52.362;-1.302;2023-04-24T06:50:00;1.00;;;0.82;;
48651;SDS011;34442;52.362;-1.302;2023-04-24T06:52:25;1.58;;;0.90;;
48651;SDS011;34442;52.362;-1.302;2023-04-24T06:54:51;1.35;;;0.90;;
48651;SDS011;34442;52.362;-1.302;2023-04-24T06:57:17;1.02;;;0.90;;
48651;SDS011;34442;52.362;-1.302;2023-04-24T06:59:46;2.05;;;0.77;;
48651;SDS011;34442;52.362;-1.302;2023-04-24T07:02:11;1.27;;;0.82;;
48651;SDS011;34442;52.362;-1.302;2023-04-24T07:04:37;1.95;;;0.90;;
48651;SDS011;34442;52.362;-1.302;2023-04-24T07:07:02;0.77;;;0.70;;
48651;SDS011;34442;52.362;-1.302;2023-04-24T07:09:27;1.48;;;0.90;;
48651;SDS011;34442;52.362;-1.302;2023-04-24T07:11:53;1.60;;;1.00;;
48651;SDS011;34442;52.362;-1.302;2023-04-24T07:14:19;2.25;;;1.00;;
48651;SDS011;34442;52.362;-1.302;2023-04-24T07:16:47;1.90;;;1.10;;
48651;SDS011;34442;52.362;-1.302;2023-04-24T07:19:13;1.08;;;0.77;;
48651;SDS011;34442;52.362;-1.302;2023-04-24T07:21:39;2.13;;;1.02;;
48651;SDS011;34442;52.362;-1.302;2023-04-24T07:24:04;1.88;;;0.88;;
48651;SDS011;34442;52.362;-1.302;2023-04-24T07:26:30;1.27;;;0.90;;
48651;SDS011;34442;52.362;-1.302;2023-04-24T07:28:56;0.95;;;0.75;;
48651;SDS011;34442;52.362;-1.302;2023-04-24T07:31:22;1.20;;;0.80;;
48651;SDS011;34442;52.362;-1.302;2023-04-24T07:33:47;1.67;;;0.80;;
48651;SDS011;34442;52.362;-1.302;2023-04-24T07:36:13;1.02;;;0.93;;
48651;SDS011;34442;52.362;-1.302;2023-04-24T07:38:44;0.75;;;0.70;;
48651;SDS011;34442;52.362;-1.302;2023-04-24T07:41:10;0.85;;;0.70;;
48651;SDS011;34442;52.362;-1.302;2023-04-24T07:43:35;2.97;;;1.15;;
48651;SDS011;34442;52.362;-1.302;2023-04-24T07:46:01;2.47;;;0.90;;
48651;SDS011;34442;52.362;-1.302;2023-04-24T07:48:26;1.63;;;1.00;;
48651;SDS011;34442;52.362;-1.302;2023-04-24T07:50:52;1.73;;;0.90;;
48651;SDS011;34442;52.362;-1.302;2023-04-24T07:53:19;1.88;;;1.02;;
48651;SDS011;34442;52.362;-1.302;2023-04-24T07:55:44;1.13;;;0.88;;
48651;SDS011;34442;52.362;-1.302;2023-04-24T07:58:10;2.17;;;0.90;;
48651;SDS011;34442;52.362;-1.302;2023-04-24T08:00:36;1.63;;;1.17;;
48651;SDS011;34442;52.362;-1.302;2023-04-24T08:03:01;3.55;;;1.30;;
48651;SDS011;34442;52.362;-1.302;2023-04-24T08:05:27;0.65;;;0.60;;
48651;SDS011;34442;52.362;-1.302;2023-04-24T08:07:53;3.10;;;1.08;;
48651;SDS011;34442;52.362;-1.302;2023-04-24T08:10:20;1.25;;;0.80;;
48651;SDS011;34442;52.362;-1.302;2023-04-24T08:12:47;1.67;;;0.82;;
48651;SDS011;34442;52.362;-1.302;2023-04-24T08:15:12;1.92;;;0.90;;
48651;SDS011;34442;52.362;-1.302;2023-04-24T08:17:38;1.88;;;1.00;;
48651;SDS011;34442;52.362;-1.302;2023-04-24T08:20:03;0.88;;;0.85;;
48651;SDS011;34442;52.362;-1.302;2023-04-24T08:22:30;1.60;;;0.70;;
48651;SDS011;34442;52.362;-1.302;2023-04-24T08:24:55;0.88;;;0.80;;
48651;SDS011;34442;52.362;-1.302;2023-04-24T08:27:22;0.90;;;0.80;;
48651;SDS011;34442;52.362;-1.302;2023-04-24T08:29:48;1.80;;;0.90;;
48651;SDS011;34442;52.362;-1.302;2023-04-24T08:32:14;2.78;;;1.35;;
48651;SDS011;34442;52.362;-1.302;2023-04-24T08:34:39;3.80;;;0.90;;
48651;SDS011;34442;52.362;-1.302;2023-04-24T08:37:05;1.10;;;0.75;;
48651;SDS011;34442;52.362;-1.302;2023-04-24T08:39:30;2.08;;;0.90;;
48651;SDS011;34442;52.362;-1.302;2023-04-24T08:41:56;1.10;;;0.80;;
48651;SDS011;34442;52.362;-1.302;2023-04-24T08:44:21;1.35;;;0.90;;
48651;SDS011;34442;52.362;-1.302;2023-04-24T08:46:47;1.17;;;0.80;;
48651;SDS011;34442;52.362;-1.302;2023-04-24T08:49:14;1.67;;;1.00;;
48651;SDS011;34442;52.362;-1.302;2023-04-24T08:51:41;1.70;;;0.82;;
48651;SDS011;34442;52.362;-1.302;2023-04-24T08:54:07;1.25;;;0.80;;
48651;SDS011;34442;52.362;-1.302;2023-04-24T08:56:33;1.45;;;1.05;;
48651;SDS011;34442;52.362;-1.302;2023-04-24T08:59:03;1.35;;;1.00;;
48651;SDS011;34442;52.362;-1.302;2023-04-24T09:01:29;2.05;;;0.88;;
48651;SDS011;34442;52.362;-1.302;2023-04-24T09:03:58;1.60;;;0.80;;
48651;SDS011;34442;52.362;-1.302;2023-04-24T09:06:27;1.05;;;0.70;;
48651;SDS011;34442;52.362;-1.302;2023-04-24T09:08:53;1.52;;;0.80;;
48651;SDS011;34442;52.362;-1.302;2023-04-24T09:11:20;1.23;;;0.70;;
48651;SDS011;34442;52.362;-1.302;2023-04-24T09:13:48;2.75;;;0.90;;
48651;SDS011;34442;52.362;-1.302;2023-04-24T09:16:14;1.60;;;1.00;;
48651;SDS011;34442;52.362;-1.302;2023-04-24T09:18:40;0.60;;;0.60;;
48651;SDS011;34442;52.362;-1.302;2023-04-24T09:21:09;1.23;;;0.88;;
48651;SDS011;34442;52.362;-1.302;2023-04-24T09:23:35;1.08;;;0.75;;
48651;SDS011;34442;52.362;-1.302;2023-04-24T09:26:01;1.05;;;0.70;;
48651;SDS011;34442;52.362;-1.302;2023-04-24T09:28:32;1.63;;;0.80;;
48651;SDS011;34442;52.362;-1.302;2023-04-24T09:31:07;1.13;;;0.82;;
48651;SDS011;34442;52.362;-1.302;2023-04-24T09:33:53;0.73;;;0.63;;
48651;SDS011;34442;52.362;-1.302;2023-04-24T09:36:26;1.50;;;0.80;;
48651;SDS011;34442;52.362;-1.302;2023-04-24T09:39:02;2.67;;;0.98;;
48651;SDS011;34442;52.362;-1.302;2023-04-24T09:41:31;1.02;;;0.80;;
48651;SDS011;34442;52.362;-1.302;2023-04-24T09:43:58;1.63;;;1.00;;
48651;SDS011;34442;52.362;-1.302;2023-04-24T09:46:37;1.70;;;0.90;;
48651;SDS011;34442;52.362;-1.302;2023-04-24T09:49:13;1.95;;;1.10;;
48651;SDS011;34442;52.362;-1.302;2023-04-24T09:51:41;2.92;;;1.20;;
48651;SDS011;34442;52.362;-1.302;2023-04-24T09:54:14;1.67;;;1.10;;
48651;SDS011;34442;52.362;-1.302;2023-04-24T09:56:44;0.80;;;0.80;;
48651;SDS011;34442;52.362;-1.302;2023-04-24T09:59:15;1.67;;;0.88;;
48651;SDS011;34442;52.362;-1.302;2023-04-24T10:01:41;2.38;;;0.80;;
48651;SDS011;34442;52.362;-1.302;2023-04-24T10:04:22;1.50;;;1.15;;
48651;SDS011;34442;52.362;-1.302;2023-04-24T10:06:49;1.65;;;0.70;;
48651;SDS011;34442;52.362;-1.302;2023-04-24T10:09:16;2.10;;;1.00;;
48651;SDS011;34442;52.362;-1.302;2023-04-24T10:11:44;1.45;;;0.90;;
48651;SDS011;34442;52.362;-1.302;2023-04-24T10:14:15;1.85;;;1.00;;
48651;SDS011;34442;52.362;-1.302;2023-04-24T10:16:42;2.17;;;1.00;;
48651;SDS011;34442;52.362;-1.302;2023-04-24T10:19:08;1.90;;;1.00;;
48651;SDS011;34442;52.362;-1.302;2023-04-24T10:21:35;1.83;;;1.10;;
48651;SDS011;34442;52.362;-1.302;2023-04-24T10:24:07;2.72;;;1.20;;
48651;SDS011;34442;52.362;-1.302;2023-04-24T10:26:34;2.38;;;1.10;;
48651;SDS011;34442;52.362;-1.302;2023-04-24T10:29:00;1.10;;;1.00;;
48651;SDS011;34442;52.362;-1.302;2023-04-24T10:31:27;1.60;;;0.93;;
48651;SDS011;34442;52.362;-1.302;2023-04-24T10:33:56;2.28;;;1.20;;
48651;SDS011;34442;52.362;-1.302;2023-04-24T10:36:23;2.13;;;1.40;;
48651;SDS011;34442;52.362;-1.302;2023-04-24T10:38:51;2.05;;;1.00;;
48651;SDS011;34442;52.362;-1.302;2023-04-24T10:41:19;1.73;;;1.10;;
48651;SDS011;34442;52.362;-1.302;2023-04-24T10:43:48;3.00;;;1.17;;
48651;SDS011;34442;52.362;-1.302;2023-04-24T10:46:31;2.07;;;0.97;;
48651;SDS011;34442;52.362;-1.302;2023-04-24T10:48:56;2.22;;;1.00;;
48651;SDS011;34442;52.362;-1.302;2023-04-24T10:51:23;2.67;;;1.20;;
48651;SDS011;34442;52.362;-1.302;2023-04-24T10:53:52;1.25;;;0.80;;
48651;SDS011;34442;52.362;-1.302;2023-04-24T10:56:18;3.30;;;1.20;;
48651;SDS011;34442;52.362;-1.302;2023-04-24T11:04:01;0.60;;;0.60;;
48651;SDS011;34442;52.362;-1.302;2023-04-24T11:06:28;2.20;;;0.93;;
48651;SDS011;34442;52.362;-1.302;2023-04-24T11:11:29;1.67;;;0.90;;
48651;SDS011;34442;52.362;-1.302;2023-04-24T11:18:51;1.80;;;0.98;;
48651;SDS011;34442;52.362;-1.302;2023-04-24T11:21:25;2.88;;;1.15;;
48651;SDS011;34442;52.362;-1.302;2023-04-24T11:23:51;1.02;;;0.70;;
48651;SDS011;34442;52.362;-1.302;2023-04-24T11:26:17;1.77;;;0.70;;
48651;SDS011;34442;52.362;-1.302;2023-04-24T11:28:46;3.35;;;0.90;;
48651;SDS011;34442;52.362;-1.302;2023-04-24T11:34:10;2.25;;;1.00;;
48651;SDS011;34442;52.362;-1.302;2023-04-24T11:36:38;1.83;;;1.00;;
48651;SDS011;34442;52.362;-1.302;2023-04-24T11:39:05;2.70;;;1.30;;
48651;SDS011;34442;52.362;-1.302;2023-04-24T11:41:33;2.58;;;1.30;;
48651;SDS011;34442;52.362;-1.302;2023-04-24T11:43:59;1.55;;;0.80;;
48651;SDS011;34442;52.362;-1.302;2023-04-24T11:46:29;2.00;;;0.90;;
48651;SDS011;34442;52.362;-1.302;2023-04-24T11:48:55;2.22;;;1.20;;
48651;SDS011;34442;52.362;-1.302;2023-04-24T11:51:25;2.05;;;0.98;;
48651;SDS011;34442;52.362;-1.302;2023-04-24T11:53:53;1.52;;;0.88;;
48651;SDS011;34442;52.362;-1.302;2023-04-24T11:56:19;1.50;;;0.90;;
48651;SDS011;34442;52.362;-1.302;2023-04-24T11:58:47;1.77;;;0.85;;
48651;SDS011;34442;52.362;-1.302;2023-04-24T12:01:12;1.48;;;1.02;;
48651;SDS011;34442;52.362;-1.302;2023-04-24T12:03:38;1.30;;;0.85;;
48651;SDS011;34442;52.362;-1.302;2023-04-24T12:06:04;0.95;;;0.80;;
48651;SDS011;34442;52.362;-1.302;2023-04-24T12:08:32;0.90;;;0.80;;
48651;SDS011;34442;52.362;-1.302;2023-04-24T12:10:59;3.38;;;1.13;;
48651;SDS011;34442;52.362;-1.302;2023-04-24T12:13:26;2.28;;;1.17;;
48651;SDS011;34442;52.362;-1.302;2023-04-24T12:15:51;2.67;;;1.17;;
48651;SDS011;34442;52.362;-1.302;2023-04-24T12:18:17;2.10;;;1.10;;
48651;SDS011;34442;52.362;-1.302;2023-04-24T12:20:43;1.10;;;0.90;;
48651;SDS011;34442;52.362;-1.302;2023-04-24T12:23:08;1.30;;;0.70;;
48651;SDS011;34442;52.362;-1.302;2023-04-24T12:25:34;2.72;;;0.93;;
48651;SDS011;34442;52.362;-1.302;2023-04-24T12:30:28;2.30;;;1.25;;
48651;SDS011;34442;52.362;-1.302;2023-04-24T12:32:54;1.35;;;1.10;;
48651;SDS011;34442;52.362;-1.302;2023-04-24T12:35:22;2.33;;;1.20;;
48651;SDS011;34442;52.362;-1.302;2023-04-24T12:37:49;2.80;;;1.13;;
48651;SDS011;34442;52.362;-1.302;2023-04-24T12:40:15;1.77;;;1.13;;
48651;SDS011;34442;52.362;-1.302;2023-04-24T12:42:45;1.23;;;0.98;;
48651;SDS011;34442;52.362;-1.302;2023-04-24T12:45:12;2.58;;;1.30;;
48651;SDS011;34442;52.362;-1.302;2023-04-24T12:47:39;1.65;;;1.00;;
48651;SDS011;34442;52.362;-1.302;2023-04-24T12:50:09;2.53;;;1.05;;
48651;SDS011;34442;52.362;-1.302;2023-04-24T12:52:36;1.75;;;0.90;;
48651;SDS011;34442;52.362;-1.302;2023-04-24T12:55:02;1.88;;;1.23;;
48651;SDS011;34442;52.362;-1.302;2023-04-24T12:57:28;1.77;;;1.02;;
48651;SDS011;34442;52.362;-1.302;2023-04-24T12:59:55;1.63;;;1.00;;
48651;SDS011;34442;52.362;-1.302;2023-04-24T13:02:22;1.30;;;0.80;;
48651;SDS011;34442;52.362;-1.302;2023-04-24T13:04:49;1.75;;;1.10;;
48651;SDS011;34442;52.362;-1.302;2023-04-24T13:07:14;1.23;;;0.90;;
48651;SDS011;34442;52.362;-1.302;2023-04-24T13:09:41;2.05;;;1.60;;
48651;SDS011;34442;52.362;-1.302;2023-04-24T13:12:10;1.75;;;1.00;;
48651;SDS011;34442;52.362;-1.302;2023-04-24T13:14:36;2.50;;;1.10;;
48651;SDS011;34442;52.362;-1.302;2023-04-24T13:17:03;3.17;;;1.50;;
48651;SDS011;34442;52.362;-1.302;2023-04-24T13:19:28;2.45;;;0.90;;
48651;SDS011;34442;52.362;-1.302;2023-04-24T13:21:55;2.38;;;1.05;;
48651;SDS011;34442;52.362;-1.302;2023-04-24T13:24:22;2.13;;;1.00;;
48651;SDS011;34442;52.362;-1.302;2023-04-24T13:26:51;1.17;;;0.82;;
48651;SDS011;34442;52.362;-1.302;2023-04-24T13:29:17;1.83;;;1.00;;
48651;SDS011;34442;52.362;-1.302;2023-04-24T13:31:42;2.58;;;1.23;;
48651;SDS011;34442;52.362;-1.302;2023-04-24T13:34:08;1.80;;;1.10;;
48651;SDS011;34442;52.362;-1.302;2023-04-24T13:36:33;1.85;;;1.10;;
48651;SDS011;34442;52.362;-1.302;2023-04-24T13:38:59;1.85;;;1.10;;
48651;SDS011;34442;52.362;-1.302;2023-04-24T13:41:24;2.65;;;1.20;;
48651;SDS011;34442;52.362;-1.302;2023-04-24T13:43:50;2.17;;;1.20;;
48651;SDS011;34442;52.362;-1.302;2023-04-24T13:46:16;2.42;;;1.23;;
48651;SDS011;34442;52.362;-1.302;2023-04-24T13:48:41;4.43;;;1.50;;
48651;SDS011;34442;52.362;-1.302;2023-04-24T13:51:07;2.45;;;1.20;;
48651;SDS011;34442;52.362;-1.302;2023-04-24T13:53:32;3.58;;;1.23;;
48651;SDS011;34442;52.362;-1.302;2023-04-24T13:56:01;2.50;;;1.35;;
48651;SDS011;34442;52.362;-1.302;2023-04-24T13:58:27;2.50;;;1.20;;
48651;SDS011;34442;52.362;-1.302;2023-04-24T14:00:53;2.13;;;1.23;;
48651;SDS011;34442;52.362;-1.302;2023-04-24T14:03:18;3.60;;;1.67;;
48651;SDS011;34442;52.362;-1.302;2023-04-24T14:05:43;2.90;;;1.58;;
48651;SDS011;34442;52.362;-1.302;2023-04-24T14:08:09;2.15;;;1.08;;
48651;SDS011;34442;52.362;-1.302;2023-04-24T14:10:34;2.10;;;1.10;;
48651;SDS011;34442;52.362;-1.302;2023-04-24T14:13:00;2.00;;;1.20;;
48651;SDS011;34442;52.362;-1.302;2023-04-24T14:15:26;2.15;;;1.27;;
48651;SDS011;34442;52.362;-1.302;2023-04-24T14:17:51;2.55;;;1.55;;
48651;SDS011;34442;52.362;-1.302;2023-04-24T14:20:16;4.05;;;1.67;;
48651;SDS011;34442;52.362;-1.302;2023-04-24T14:22:42;3.42;;;1.35;;
48651;SDS011;34442;52.362;-1.302;2023-04-24T14:25:07;2.47;;;1.30;;
48651;SDS011;34442;52.362;-1.302;2023-04-24T14:27:33;3.40;;;1.70;;
48651;SDS011;34442;52.362;-1.302;2023-04-24T14:29:59;1.95;;;1.20;;
48651;SDS011;34442;52.362;-1.302;2023-04-24T14:32:25;2.00;;;1.13;;
48651;SDS011;34442;52.362;-1.302;2023-04-24T14:34:51;3.38;;;1.40;;
48651;SDS011;34442;52.362;-1.302;2023-04-24T14:37:16;5.35;;;1.50;;
48651;SDS011;34442;52.362;-1.302;2023-04-24T14:39:42;2.45;;;1.38;;
48651;SDS011;34442;52.362;-1.302;2023-04-24T14:42:07;2.85;;;1.38;;
48651;SDS011;34442;52.362;-1.302;2023-04-24T14:44:32;4.90;;;1.40;;
48651;SDS011;34442;52.362;-1.302;2023-04-24T14:46:58;4.43;;;1.90;;